Time;durP1;ratioP1;P1;durP2;ratioP2;P2;SDS_P1;SDS_P2;PMS_P1;PMS_P2;Temp;Humidity;BMP_temperature;BMP_pressure;BME280_temperature;BME280_humidity;BME280_pressure;Samples;Min_cycle;Max_cycle;Signal;HPM_P1;HPM_P2
2022/03/29 00:00:27;;;;;;;22.25;13.90;;;;;;;9.58;77.51;99157.41;4918634;29;20543;-79
2022/03/29 00:02:53;;;;;;;18.95;13.00;;;;;;;9.61;77.18;99167.66;4918690;29;20039;-79
2022/03/29 00:05:18;;;;;;;22.63;13.98;;;;;;;9.50;76.88;99149.97;4918416;29;20027;-80
2022/03/29 00:07:44;;;;;;;20.15;12.80;;;;;;;9.59;77.16;99174.66;4917472;29;20132;-79
2022/03/29 00:10:10;;;;;;;17.20;12.57;;;;;;;9.54;77.19;99168.03;4918691;29;20520;-80
2022/03/29 00:12:36;;;;;;;18.58;14.05;;;;;;;9.37;77.30;99138.53;4917107;29;20094;-79
2022/03/29 00:15:04;;;;;;;18.90;13.43;;;;;;;9.33;77.67;99138.75;4918538;29;20122;-79
2022/03/29 00:17:29;;;;;;;18.70;13.73;;;;;;;9.38;77.77;99152.34;4918426;29;20024;-79
2022/03/29 00:19:55;;;;;;;19.33;14.18;;;;;;;9.34;77.74;99162.06;4918258;29;20032;-79
2022/03/29 00:22:20;;;;;;;23.17;14.57;;;;;;;9.30;78.35;99157.09;4918280;29;20031;-79
2022/03/29 00:24:46;;;;;;;17.85;13.35;;;;;;;9.27;78.29;99157.22;4918390;29;20091;-79
2022/03/29 00:27:11;;;;;;;20.40;13.60;;;;;;;9.12;78.46;99138.88;4917074;29;20115;-79
2022/03/29 00:29:37;;;;;;;18.83;13.40;;;;;;;9.17;78.96;99151.66;4917970;29;20496;-79
2022/03/29 00:32:03;;;;;;;25.60;14.10;;;;;;;9.05;79.17;99145.28;4918156;29;20027;-79
2022/03/29 00:34:29;;;;;;;21.40;13.43;;;;;;;9.09;79.49;99162.41;4917807;29;20067;-79
2022/03/29 00:36:54;;;;;;;22.10;15.10;;;;;;;8.88;79.40;99127.91;4934456;29;20046;-79
2022/03/29 00:39:20;;;;;;;21.90;15.50;;;;;;;8.91;79.75;99151.16;4934387;29;20052;-79
2022/03/29 00:41:45;;;;;;;18.48;13.40;;;;;;;8.97;80.35;99163.84;4934576;29;20067;-79
2022/03/29 00:44:11;;;;;;;22.73;13.45;;;;;;;8.87;80.55;99151.38;4934628;29;20036;-79
2022/03/29 00:46:36;;;;;;;23.30;14.90;;;;;;;8.97;80.34;99165.59;4934217;29;20183;-79
2022/03/29 00:49:02;;;;;;;20.23;14.18;;;;;;;8.98;80.33;99154.31;4934269;29;20098;-79
2022/03/29 00:51:27;;;;;;;19.90;13.80;;;;;;;9.02;79.71;99158.44;4934187;29;20128;-79
2022/03/29 00:53:54;;;;;;;19.60;13.00;;;;;;;8.96;79.00;99159.56;4934350;29;20046;-78
2022/03/29 00:56:20;;;;;;;19.75;11.70;;;;;;;8.93;78.23;99164.06;4934037;29;20094;-79
2022/03/29 00:58:46;;;;;;;17.52;12.18;;;;;;;8.86;77.86;99157.50;4933668;29;20092;-78
2022/03/29 01:01:13;;;;;;;18.52;12.63;;;;;;;8.75;77.59;99150.19;4934180;29;20028;-78
2022/03/29 01:03:41;;;;;;;16.85;12.45;;;;;;;8.70;77.40;99145.22;4933648;29;20043;-79
2022/03/29 01:06:06;;;;;;;17.10;11.88;;;;;;;8.56;77.59;99126.03;4934046;29;20036;-79
2022/03/29 01:08:34;;;;;;;15.75;11.77;;;;;;;8.58;77.66;99145.78;4920255;29;20040;-79
2022/03/29 01:10:59;;;;;;;13.85;11.13;;;;;;;8.49;77.65;99130.66;4917646;29;20028;-78
2022/03/29 01:13:25;;;;;;;17.42;10.57;;;;;;;8.47;77.70;99145.47;4915889;29;20503;-78
2022/03/29 01:15:50;;;;;;;22.92;11.20;;;;;;;8.31;77.78;99118.50;4917561;29;20048;-78
2022/03/29 01:18:18;;;;;;;18.02;10.75;;;;;;;8.42;77.99;99140.44;4917322;29;20059;-78
2022/03/29 01:20:47;;;;;;;15.23;11.32;;;;;;;8.43;78.25;99147.34;4916272;29;20460;-78
2022/03/29 01:23:14;;;;;;;14.48;10.75;;;;;;;8.43;77.94;99155.13;4917384;29;20039;-78
2022/03/29 01:25:40;;;;;;;16.05;11.52;;;;;;;8.40;78.13;99162.22;4915837;29;20032;-79
2022/03/29 01:28:06;;;;;;;14.70;11.85;;;;;;;8.42;78.47;99163.81;4917073;29;20028;-78
2022/03/29 01:30:33;;;;;;;15.85;11.52;;;;;;;8.52;78.62;99168.59;4915675;29;20048;-78
2022/03/29 01:33:01;;;;;;;15.00;11.48;;;;;;;8.52;78.77;99166.84;4916979;29;20028;-79
2022/03/29 01:35:27;;;;;;;17.60;11.93;;;;;;;8.49;79.00;99161.78;4916953;29;20416;-79
2022/03/29 01:37:54;;;;;;;18.20;11.95;;;;;;;8.52;78.83;99168.59;4917158;29;20035;-78
2022/03/29 01:40:25;;;;;;;19.63;12.88;;;;;;;8.53;79.23;99171.13;4916826;29;20032;-78
2022/03/29 01:42:55;;;;;;;;;;;;;;;8.62;79.32;99168.09;4917302;29;20024;-79
2022/03/29 01:45:22;;;;;;;21.85;13.32;;;;;;;8.58;79.58;99163.13;4916517;29;20278;-79
2022/03/29 01:47:47;;;;;;;17.80;12.63;;;;;;;8.55;79.31;99134.69;4915620;29;20039;-79
2022/03/29 01:50:13;;;;;;;18.02;11.73;;;;;;;8.58;79.47;99148.38;4917141;29;20039;-79
2022/03/29 01:52:41;;;;;;;16.17;12.02;;;;;;;8.45;79.82;99127.34;4916426;29;20028;-79
2022/03/29 01:55:09;;;;;;;18.05;12.80;;;;;;;8.49;79.24;99136.66;4915418;29;20434;-79
2022/03/29 01:57:36;;;;;;;20.42;12.93;;;;;;;8.34;79.35;99106.19;4916412;29;20116;-79
2022/03/29 02:02:48;;;;;;;17.25;11.18;;;;;;;8.36;79.36;99137.28;4916424;29;20136;-79
2022/03/29 02:05:13;;;;;;;16.45;11.40;;;;;;;8.17;79.65;99113.91;4916538;29;20041;-79
2022/03/29 02:07:39;;;;;;;16.70;11.80;;;;;;;8.08;79.92;99099.59;4916204;29;20035;-79
2022/03/29 02:10:06;;;;;;;20.77;12.20;;;;;;;8.06;79.83;99110.97;4915097;29;20119;-79
2022/03/29 02:12:33;;;;;;;14.57;11.07;;;;;;;8.12;79.80;99128.84;4915964;29;20039;-79
2022/03/29 02:14:58;;;;;;;13.95;10.38;;;;;;;8.09;80.00;99116.88;4914964;29;20046;-79
2022/03/29 02:17:23;;;;;;;14.07;10.82;;;;;;;7.99;80.12;99093.09;4914918;29;20119;-79
2022/03/29 02:19:49;;;;;;;14.90;10.95;;;;;;;8.11;80.08;99107.25;4916340;29;20039;-78
2022/03/29 02:22:14;;;;;;;14.00;10.90;;;;;;;8.09;80.26;99106.50;4916169;29;20070;-79
2022/03/29 02:24:39;;;;;;;15.70;11.45;;;;;;;8.05;80.25;99104.97;4915986;29;20696;-79
2022/03/29 02:27:05;;;;;;;15.82;12.02;;;;;;;7.92;80.62;99083.91;4914798;29;20059;-79
2022/03/29 02:29:30;;;;;;;17.40;11.30;;;;;;;7.85;80.83;99081.66;4914814;29;20036;-79
2022/03/29 02:31:56;;;;;;;16.40;11.15;;;;;;;7.86;81.18;99094.53;4915021;29;20028;-79
2022/03/29 02:34:21;;;;;;;16.58;10.85;;;;;;;7.75;81.61;99083.78;4916102;29;20115;-79
2022/03/29 02:36:46;;;;;;;15.50;11.40;;;;;;;7.77;81.88;99094.13;4916308;29;20036;-79
2022/03/29 02:39:12;;;;;;;15.07;10.55;;;;;;;7.71;82.19;99095.22;4914676;29;20036;-78
2022/03/29 02:41:37;;;;;;;14.65;11.38;;;;;;;7.64;82.54;99084.28;4915597;29;20024;-79
2022/03/29 02:44:03;;;;;;;19.50;11.25;;;;;;;7.65;82.75;99095.50;4916054;29;20036;-78
2022/03/29 02:46:29;;;;;;;19.05;12.15;;;;;;;7.57;82.93;99082.84;4915815;29;20024;-78
2022/03/29 02:48:54;;;;;;;16.58;11.85;;;;;;;7.47;83.28;99071.22;4915857;29;20051;-78
2022/03/29 02:51:20;;;;;;;16.33;11.50;;;;;;;7.57;83.80;99076.84;4914599;29;20484;-78
2022/03/29 02:53:45;;;;;;;15.38;11.32;;;;;;;7.56;83.74;99067.38;4915860;29;20047;-79
2022/03/29 02:56:10;;;;;;;15.68;11.32;;;;;;;7.52;83.68;99074.44;4915682;29;20024;-78
2022/03/29 02:58:36;;;;;;;13.20;10.57;;;;;;;7.49;83.81;99054.69;4914376;29;20465;-79
2022/03/29 03:01:01;;;;;;;15.00;10.35;;;;;;;7.46;83.97;99046.22;4915718;29;20035;-79
2022/03/29 03:03:29;;;;;;;16.77;11.57;;;;;;;7.54;83.93;99061.41;4915372;29;20028;-79
2022/03/29 03:05:54;;;;;;;12.98;10.32;;;;;;;7.50;84.21;99058.97;4915656;29;20024;-79
2022/03/29 03:08:19;;;;;;;14.55;11.13;;;;;;;7.47;83.88;99053.09;4915749;29;20076;-79
2022/03/29 03:10:45;;;;;;;18.33;10.77;;;;;;;7.48;84.03;99052.16;4915848;29;20036;-79
2022/03/29 03:13:11;;;;;;;14.00;10.38;;;;;;;7.46;84.31;99047.06;4915801;29;20115;-79
2022/03/29 03:15:36;;;;;;;14.25;10.77;;;;;;;7.48;84.27;99063.38;4915256;29;20063;-79
2022/03/29 03:18:02;;;;;;;18.35;10.80;;;;;;;7.38;84.44;99062.09;4915583;29;20028;-79
2022/03/29 03:20:29;;;;;;;16.98;11.02;;;;;;;7.30;84.46;99056.41;4916364;29;20035;-79
2022/03/29 03:22:55;;;;;;;16.77;10.70;;;;;;;7.25;84.90;99068.72;4919315;29;20028;-79
2022/03/29 03:25:21;;;;;;;15.43;11.32;;;;;;;7.07;85.21;99049.59;4917935;29;20067;-79
2022/03/29 03:27:47;;;;;;;15.70;10.88;;;;;;;7.12;86.07;99065.81;4917999;29;20050;-79
2022/03/29 03:30:14;;;;;;;15.30;11.23;;;;;;;6.94;86.28;99048.41;4918136;29;20743;-79
2022/03/29 03:32:41;;;;;;;16.42;11.77;;;;;;;6.94;86.95;99061.38;4919100;29;20028;-79
2022/03/29 03:35:07;;;;;;;15.07;10.65;;;;;;;6.90;87.32;99063.22;4919176;29;20536;-79
2022/03/29 03:37:33;;;;;;;13.68;9.93;;;;;;;6.80;87.46;99048.16;4917569;29;20024;-78
2022/03/29 03:39:58;;;;;;;16.30;11.55;;;;;;;6.85;87.99;99069.50;4916474;29;20047;-78
2022/03/29 03:42:24;;;;;;;16.15;10.82;;;;;;;6.86;87.97;99064.25;4916486;29;20040;-78
2022/03/29 03:44:49;;;;;;;16.13;11.23;;;;;;;6.87;87.99;99063.38;4916418;29;20036;-78
2022/03/29 03:47:15;;;;;;;14.35;10.20;;;;;;;6.88;88.22;99064.22;4916645;29;20028;-79
2022/03/29 03:49:40;;;;;;;17.48;11.23;;;;;;;6.89;88.24;99066.72;4916255;29;20408;-78
2022/03/29 03:52:07;;;;;;;13.70;9.88;;;;;;;6.78;88.57;99053.38;4916359;29;20028;-78
2022/03/29 03:54:34;;;;;;;13.80;10.10;;;;;;;6.84;88.25;99073.84;4900368;29;20044;-78
2022/03/29 03:56:59;;;;;;;13.43;10.02;;;;;;;6.81;89.00;99073.97;4916455;29;20036;-79
2022/03/29 03:59:25;;;;;;;16.23;10.65;;;;;;;6.70;89.05;99065.78;4916269;29;20055;-79
2022/03/29 04:01:50;;;;;;;16.08;10.70;;;;;;;6.66;89.00;99069.44;4916085;29;20064;-79
2022/03/29 04:04:16;;;;;;;13.48;10.27;;;;;;;6.66;89.47;99082.38;4916453;29;20547;-79
2022/03/29 04:06:41;;;;;;;14.30;10.65;;;;;;;6.59;89.64;99076.56;4916049;29;20480;-78
2022/03/29 04:09:07;;;;;;;14.70;10.73;;;;;;;6.52;90.26;99071.69;4916279;29;20040;-79
2022/03/29 04:11:32;;;;;;;11.77;9.65;;;;;;;6.52;90.37;99080.28;4911736;29;20040;-79
2022/03/29 04:13:58;;;;;;;12.40;9.43;;;;;;;6.37;90.40;99062.81;4917404;29;20024;-78
2022/03/29 04:16:25;;;;;;;18.40;10.57;;;;;;;6.47;90.63;99082.22;4918653;29;20083;-79
2022/03/29 04:18:50;;;;;;;13.50;9.80;;;;;;;6.42;91.13;99089.31;4917024;29;20032;-79
2022/03/29 04:21:16;;;;;;;14.75;10.15;;;;;;;6.34;91.24;99075.84;4917197;29;20038;-79
2022/03/29 04:23:41;;;;;;;13.48;10.23;;;;;;;6.27;91.59;99061.47;4918137;29;20024;-79
2022/03/29 04:26:07;;;;;;;14.55;10.18;;;;;;;6.25;91.70;99064.13;4918485;29;20032;-79
2022/03/29 04:28:32;;;;;;;16.00;10.18;;;;;;;6.27;92.03;99064.03;4918224;29;20042;-79
2022/03/29 04:30:59;;;;;;;14.63;10.73;;;;;;;6.33;92.09;99066.41;4917152;29;20465;-79
2022/03/29 04:33:28;;;;;;;20.48;11.45;;;;;;;6.33;92.12;99059.50;4917231;29;20114;-79
2022/03/29 04:35:54;;;;;;;13.98;10.70;;;;;;;6.39;91.43;99051.47;4916734;29;20043;-78
2022/03/29 04:38:20;;;;;;;13.85;11.07;;;;;;;6.37;91.43;99045.53;4918082;29;20063;-78
2022/03/29 04:40:46;;;;;;;13.07;10.60;;;;;;;6.41;91.71;99067.78;4918162;29;20070;-78
2022/03/29 04:43:12;;;;;;;16.05;11.15;;;;;;;6.39;91.60;99051.47;4918282;29;20477;-79
2022/03/29 04:45:37;;;;;;;15.63;10.80;;;;;;;6.41;91.50;99054.03;4917932;29;20107;-79
2022/03/29 04:48:03;;;;;;;17.13;10.95;;;;;;;6.53;91.59;99063.03;4916747;29;20032;-78
2022/03/29 04:50:29;;;;;;;14.10;10.43;;;;;;;6.58;91.34;99058.53;4916819;29;20515;-79
2022/03/29 04:52:55;;;;;;;17.83;10.32;;;;;;;6.68;90.87;99049.50;4918126;29;20472;-79
2022/03/29 04:55:20;;;;;;;15.10;11.25;;;;;;;6.71;90.84;99063.16;4916918;29;20024;-79
2022/03/29 04:57:48;;;;;;;16.63;10.55;;;;;;;6.69;90.51;99064.09;4916569;29;20028;-80
2022/03/29 05:00:16;;;;;;;20.10;11.00;;;;;;;6.58;90.29;99041.25;4918025;29;20061;-79
2022/03/29 05:02:43;;;;;;;16.27;11.50;;;;;;;6.74;90.11;99068.22;4917553;29;20028;-80
2022/03/29 05:05:10;;;;;;;17.50;11.52;;;;;;;6.77;90.53;99064.63;4917681;29;20036;-76
2022/03/29 05:07:36;;;;;;;20.08;12.65;;;;;;;6.79;89.96;99072.34;4917605;29;20039;-76
2022/03/29 05:10:02;;;;;;;22.13;12.85;;;;;;;6.72;89.74;99053.63;4917836;29;20043;-76
2022/03/29 05:12:28;;;;;;;19.98;12.70;;;;;;;6.71;89.69;99046.78;4931371;29;20083;-76
2022/03/29 05:14:53;;;;;;;20.15;12.77;;;;;;;6.84;89.52;99058.31;4917242;29;20123;-76
2022/03/29 05:17:19;;;;;;;19.67;12.20;;;;;;;6.91;89.17;99061.47;4917562;29;20028;-76
2022/03/29 05:19:44;;;;;;;16.40;10.55;;;;;;;7.02;88.70;99076.59;4917175;29;20047;-76
2022/03/29 05:22:09;;;;;;;16.75;11.60;;;;;;;7.17;88.15;99087.16;4917375;29;20059;-76
2022/03/29 05:24:35;;;;;;;14.27;11.10;;;;;;;7.31;88.15;99081.38;4917127;29;20369;-76
2022/03/29 05:27:00;;;;;;;20.70;11.30;;;;;;;7.60;87.28;99074.13;4917730;29;20107;-76
2022/03/29 05:29:28;;;;;;;16.88;11.73;;;;;;;7.99;85.27;99063.72;4917332;29;20035;-76
2022/03/29 05:31:53;;;;;;;16.17;10.60;;;;;;;8.32;83.34;99069.13;4917099;29;20139;-76
2022/03/29 05:34:20;;;;;;;18.15;12.27;;;;;;;8.31;82.07;99071.78;4917187;29;20533;-76
2022/03/29 05:36:46;;;;;;;17.52;11.73;;;;;;;8.23;81.51;99062.59;4916829;29;20028;-76
2022/03/29 05:39:13;;;;;;;15.52;11.23;;;;;;;8.29;81.08;99089.16;4917295;29;20036;-76
2022/03/29 05:41:42;;;;;;;20.85;11.55;;;;;;;8.13;81.43;99068.28;4916926;29;20032;-77
2022/03/29 05:44:08;;;;;;;17.88;12.50;;;;;;;8.21;81.44;99073.94;4915502;29;20481;-80
2022/03/29 05:49:20;;;;;;;15.25;11.00;;;;;;;8.59;80.87;99084.31;4916849;29;20444;-79
2022/03/29 05:51:46;;;;;;;17.40;11.23;;;;;;;8.75;79.95;99082.69;4916909;29;20058;-79
2022/03/29 05:54:11;;;;;;;16.73;11.13;;;;;;;8.84;78.63;99082.22;4916956;29;20496;-79
2022/03/29 05:56:37;;;;;;;16.92;10.55;;;;;;;8.90;78.14;99081.13;4916635;29;20032;-80
2022/03/29 05:59:02;;;;;;;17.45;11.98;;;;;;;8.86;77.78;99088.22;4915446;29;20175;-79
2022/03/29 06:01:28;;;;;;;15.18;11.30;;;;;;;8.79;77.94;99073.84;4915203;29;20103;-80
2022/03/29 06:03:53;;;;;;;14.90;11.38;;;;;;;8.89;77.85;99092.41;4916610;29;20120;-79
2022/03/29 06:06:19;;;;;;;15.60;11.55;;;;;;;8.88;77.81;99098.50;4916645;29;20021;-79
2022/03/29 06:08:44;;;;;;;13.88;11.50;;;;;;;8.87;77.85;99104.63;4916607;29;20478;-79
2022/03/29 06:11:09;;;;;;;16.23;11.50;;;;;;;8.81;77.89;99094.56;4916776;29;20032;-79
2022/03/29 06:13:35;;;;;;;16.40;11.75;;;;;;;8.81;77.31;99103.19;4916396;29;20032;-80
2022/03/29 06:16:02;;;;;;;17.38;12.32;;;;;;;8.70;77.67;99090.69;4916305;29;20051;-80
2022/03/29 06:18:28;;;;;;;17.13;11.25;;;;;;;8.78;77.87;99100.72;4915064;29;20032;-79
2022/03/29 06:20:54;;;;;;;15.32;11.90;;;;;;;8.78;77.90;99105.06;4916252;29;20028;-79
2022/03/29 06:23:19;;;;;;;19.85;12.02;;;;;;;8.75;78.33;99103.44;4915147;29;20039;-79
2022/03/29 06:25:46;;;;;;;19.35;12.75;;;;;;;8.65;78.29;99084.88;4916179;29;20058;-79
2022/03/29 06:28:12;;;;;;;15.93;11.80;;;;;;;8.66;78.48;99109.09;4916210;29;20085;-79
2022/03/29 06:30:38;;;;;;;15.18;11.85;;;;;;;8.61;78.73;99108.47;4915983;29;20032;-79
2022/03/29 06:33:04;;;;;;;16.75;13.02;;;;;;;8.67;78.92;99115.97;4916067;29;20484;-79
2022/03/29 06:35:31;;;;;;;17.75;12.82;;;;;;;8.64;79.11;99103.97;4916557;29;20084;-79
2022/03/29 06:37:58;;;;;;;17.88;13.20;;;;;;;8.67;78.92;99103.81;4916095;29;20087;-79
2022/03/29 06:40:25;;;;;;;20.73;14.10;;;;;;;8.67;79.38;99103.81;4914939;29;20083;-79
2022/03/29 06:42:51;;;;;;;16.10;12.90;;;;;;;8.64;78.95;99101.38;4915858;29;20028;-80
2022/03/29 06:45:17;;;;;;;17.58;13.65;;;;;;;8.70;78.73;99108.88;4915939;29;20183;-80
2022/03/29 06:47:43;;;;;;;17.92;12.45;;;;;;;8.73;79.00;99095.75;4916117;29;20539;-79
2022/03/29 06:50:10;;;;;;;20.15;12.75;;;;;;;8.93;78.34;99096.53;4916106;29;20036;-79
2022/03/29 06:52:41;;;;;;;16.95;12.73;;;;;;;8.96;78.17;99097.22;4916045;29;20048;-79
2022/03/29 06:55:08;;;;;;;17.17;12.20;;;;;;;9.11;77.95;99113.00;4914101;29;20032;-79
2022/03/29 06:57:34;;;;;;;16.73;12.27;;;;;;;9.14;77.94;99123.22;4915840;29;20028;-79
2022/03/29 06:59:59;;;;;;;17.48;12.82;;;;;;;9.19;77.42;99123.84;4914229;29;20043;-79
2022/03/29 07:02:25;;;;;;;18.33;12.57;;;;;;;9.25;76.76;99113.97;4915910;29;20063;-79
2022/03/29 07:04:55;;;;;;;17.92;12.57;;;;;;;9.30;76.37;99108.53;4916038;29;20059;-79
2022/03/29 07:07:21;;;;;;;17.05;13.32;;;;;;;9.35;76.22;99113.50;4915877;29;20032;-79
2022/03/29 07:12:30;;;;;;;15.95;11.43;;;;;;;9.36;75.93;99107.41;4915655;29;20519;-79
2022/03/29 07:14:57;;;;;;;18.20;12.93;;;;;;;9.31;76.24;99099.00;4915590;29;20080;-79
2022/03/29 07:17:23;;;;;;;18.52;13.52;;;;;;;9.45;75.86;99115.59;4916050;29;20111;-79
2022/03/29 07:19:48;;;;;;;19.77;13.13;;;;;;;9.39;75.96;99102.03;4915617;29;20040;-80
2022/03/29 07:22:14;;;;;;;19.45;13.82;;;;;;;9.44;75.85;99100.91;4915857;29;20030;-79
2022/03/29 07:24:40;;;;;;;19.38;13.32;;;;;;;9.53;75.78;99110.00;4914288;29;20028;-79
2022/03/29 07:27:05;;;;;;;20.42;13.35;;;;;;;9.61;75.51;99112.22;4915576;29;20395;-79
2022/03/29 07:29:32;;;;;;;18.58;13.20;;;;;;;9.65;75.34;99104.19;4915731;29;20028;-80
2022/03/29 07:31:58;;;;;;;19.05;12.68;;;;;;;9.72;74.78;99107.28;4915507;29;20099;-79
2022/03/29 07:34:23;;;;;;;18.08;11.50;;;;;;;9.63;74.92;99095.59;4914322;29;20032;-77
2022/03/29 07:36:48;;;;;;;18.52;13.00;;;;;;;9.72;74.75;99104.69;4915368;29;20067;-77
2022/03/29 07:39:14;;;;;;;17.75;13.90;;;;;;;9.79;74.63;99113.03;4915501;29;20036;-77
2022/03/29 07:41:40;;;;;;;21.45;13.90;;;;;;;9.85;74.49;99110.91;4915371;29;20047;-77
2022/03/29 07:44:05;;;;;;;23.60;14.25;;;;;;;9.97;74.22;99109.44;4915615;29;20517;-77
2022/03/29 07:46:31;;;;;;;21.98;14.38;;;;;;;10.12;73.69;99119.06;4914227;29;20024;-76
2022/03/29 07:48:56;;;;;;;22.98;15.23;;;;;;;10.29;73.04;99105.16;4915098;29;20032;-76
2022/03/29 07:51:22;;;;;;;20.65;15.63;;;;;;;10.44;72.38;99095.66;4915323;29;20040;-80
2022/03/29 07:53:48;;;;;;;22.63;15.02;;;;;;;10.73;71.26;99089.69;4915152;29;20373;-81
2022/03/29 07:56:13;;;;;;;20.70;14.63;;;;;;;10.83;70.34;99073.53;4913990;29;20028;-79
2022/03/29 07:58:39;;;;;;;24.38;16.77;;;;;;;11.05;69.43;99079.22;4915509;29;20370;-79
2022/03/29 08:01:05;;;;;;;24.95;17.25;;;;;;;11.40;68.34;99098.00;4915278;29;20051;-80
2022/03/29 08:03:33;;;;;;;24.75;15.45;;;;;;;11.37;67.53;99097.34;4914117;29;20401;-80
2022/03/29 08:06:00;;;;;;;22.95;16.45;;;;;;;11.25;67.32;99096.31;4915202;29;20504;-81
2022/03/29 08:08:26;;;;;;;26.55;17.95;;;;;;;11.03;67.87;99086.25;4918688;29;20429;-80
2022/03/29 08:10:51;;;;;;;29.40;17.60;;;;;;;11.00;68.24;99102.09;4918594;29;20032;-81
2022/03/29 08:13:18;;;;;;;29.90;19.40;;;;;;;10.86;68.79;99096.81;4917651;29;20128;-81
2022/03/29 08:15:47;;;;;;;27.00;19.27;;;;;;;10.67;68.83;99076.19;4918391;29;20052;-80
2022/03/29 08:18:13;;;;;;;27.52;19.42;;;;;;;10.59;69.04;99097.44;4918649;29;20040;-80
2022/03/29 08:20:39;;;;;;;27.75;20.58;;;;;;;10.45;69.75;99098.22;4917248;29;20035;-82
2022/03/29 08:23:07;;;;;;;27.45;19.30;;;;;;;10.37;70.20;99099.56;4918257;29;20024;-81
2022/03/29 08:25:35;;;;;;;30.50;20.70;;;;;;;10.44;70.01;99098.28;4918761;29;20036;-82
2022/03/29 08:28:01;;;;;;;26.30;19.70;;;;;;;10.34;69.83;99084.09;4917016;29;20399;-81
2022/03/29 08:30:28;;;;;;;28.83;21.40;;;;;;;10.24;70.23;99088.94;4918402;29;20029;-80
2022/03/29 08:32:54;;;;;;;31.35;21.95;;;;;;;10.35;70.50;99098.78;4916662;29;20492;-80
2022/03/29 08:35:19;;;;;;;31.60;22.17;;;;;;;10.34;70.17;99107.53;4918561;29;20044;-79
2022/03/29 08:37:47;;;;;;;31.92;23.42;;;;;;;10.32;70.27;99086.75;4935190;29;20039;-80
2022/03/29 08:40:16;;;;;;;36.50;24.42;;;;;;;10.24;69.72;99089.81;4936198;29;20035;-79
2022/03/29 08:42:44;;;;;;;35.45;24.65;;;;;;;10.22;69.67;99090.78;4934761;29;20586;-79
2022/03/29 08:45:14;;;;;;;34.08;23.02;;;;;;;10.11;69.06;99088.75;4933296;29;20031;-79
2022/03/29 08:47:42;;;;;;;36.63;24.30;;;;;;;10.15;68.93;99089.41;4935719;29;20361;-80
2022/03/29 08:50:09;;;;;;;34.38;23.70;;;;;;;10.20;68.57;99085.66;4958037;28;20042;-79
2022/03/29 08:52:35;;;;;;;33.42;23.77;;;;;;;10.11;68.13;99082.69;4958308;28;20024;-78
2022/03/29 08:55:03;;;;;;;38.17;23.80;;;;;;;10.20;68.16;99093.47;4935501;29;20019;-78
2022/03/29 08:57:29;;;;;;;33.22;23.67;;;;;;;10.48;67.68;99086.78;4958362;28;20082;-78
2022/03/29 08:59:55;;;;;;;32.70;23.27;;;;;;;10.61;66.40;99097.34;4935273;29;20114;-79
2022/03/29 09:02:21;;;;;;;30.75;22.02;;;;;;;10.53;65.86;99095.16;4935436;29;20114;-78
2022/03/29 09:05:12;;;;;;;27.00;20.95;;;;;;;10.40;66.53;99102.81;4957792;28;20035;-78
2022/03/29 09:08:04;;;;;;;30.98;22.70;;;;;;;10.39;67.14;99105.50;4934559;29;20024;-78
2022/03/29 09:10:40;;;;;;;31.75;21.42;;;;;;;10.23;66.95;99085.47;4924768;29;20123;-78
2022/03/29 09:13:28;;;;;;;28.65;21.27;;;;;;;10.21;67.05;99104.72;4932500;29;20463;-78
2022/03/29 09:15:56;;;;;;;30.27;21.42;;;;;;;10.33;66.63;99093.66;4932264;29;20048;-78
2022/03/29 09:18:22;;;;;;;31.60;20.90;;;;;;;10.37;66.33;99073.53;4932445;29;20043;-79
2022/03/29 09:21:15;;;;;;;31.42;22.25;;;;;;;10.41;66.13;99088.88;4917428;29;20035;-79
2022/03/29 09:23:42;;;;;;;29.05;21.27;;;;;;;10.45;66.09;99079.97;4933616;29;20028;-79
2022/03/29 09:26:28;;;;;;;29.17;20.13;;;;;;;10.53;65.36;99081.31;4933295;29;20036;-79
2022/03/29 09:28:54;;;;;;;28.52;21.33;;;;;;;10.58;65.03;99077.53;4917167;29;20059;-79
2022/03/29 09:31:22;;;;;;;30.98;21.30;;;;;;;10.58;64.90;99069.72;4933451;29;20066;-79
2022/03/29 09:33:48;;;;;;;27.50;21.42;;;;;;;10.67;65.10;99077.03;4930725;29;20031;-77
2022/03/29 09:36:18;;;;;;;32.22;21.95;;;;;;;10.58;65.44;99072.34;4917323;29;20558;-76
2022/03/29 09:38:47;;;;;;;32.05;22.80;;;;;;;10.59;65.97;99078.38;4933220;29;20112;-77
2022/03/29 09:41:28;;;;;;;31.95;23.45;;;;;;;10.77;66.12;99072.13;4933143;29;20044;-75
2022/03/29 09:44:09;;;;;;;29.83;22.75;;;;;;;10.88;65.19;99045.47;4917248;29;20380;-75
2022/03/29 09:47:04;;;;;;;35.80;22.00;;;;;;;11.07;64.62;99068.69;4930182;29;20040;-76
2022/03/29 09:49:47;;;;;;;27.33;20.02;;;;;;;11.09;63.83;99062.47;4917187;29;20056;-76
2022/03/29 09:52:17;;;;;;;29.17;19.25;;;;;;;11.04;63.04;99050.63;4917113;29;20036;-75
2022/03/29 09:55:16;;;;;;;26.90;20.38;;;;;;;10.91;62.98;99061.78;4916913;29;20119;-75
2022/03/29 09:57:47;;;;;;;28.50;20.00;;;;;;;10.71;63.03;99062.91;4917008;29;20035;-75
2022/03/29 10:00:19;;;;;;;30.70;20.92;;;;;;;10.57;64.00;99059.38;4916857;29;20067;-75
2022/03/29 10:02:46;;;;;;;26.33;20.23;;;;;;;10.40;64.36;99055.09;4916934;29;20429;-75
2022/03/29 10:05:12;;;;;;;24.70;18.92;;;;;;;10.39;64.72;99061.25;4916567;29;20084;-75
2022/03/29 10:07:42;;;;;;;26.02;19.92;;;;;;;10.38;65.08;99055.22;4916611;29;20043;-75
2022/03/29 10:10:09;;;;;;;29.90;22.58;;;;;;;10.44;65.49;99038.41;4916504;29;20039;-75
2022/03/29 10:12:35;;;;;;;27.75;20.65;;;;;;;10.55;64.47;99027.41;4916709;29;20110;-75
2022/03/29 10:15:02;;;;;;;27.38;20.13;;;;;;;10.69;64.42;99038.69;4916304;29;20119;-75
2022/03/29 10:17:28;;;;;;;27.85;21.27;;;;;;;10.81;64.02;99031.94;4916587;29;20028;-75
2022/03/29 10:19:56;;;;;;;25.20;19.80;;;;;;;10.84;63.85;99049.19;4916151;29;20027;-75
2022/03/29 10:22:21;;;;;;;29.30;20.83;;;;;;;10.67;63.70;99037.94;4916326;29;20103;-75
2022/03/29 10:24:47;;;;;;;31.23;22.58;;;;;;;10.57;64.21;99028.13;4919517;29;20135;-75
2022/03/29 10:27:15;;;;;;;34.88;22.58;;;;;;;10.52;64.55;99043.19;4934781;29;20558;-77
2022/03/29 10:29:41;;;;;;;31.80;22.30;;;;;;;10.36;64.92;99023.19;4934366;29;20079;-75
2022/03/29 10:32:06;;;;;;;28.60;21.60;;;;;;;10.41;65.19;99028.19;4934665;29;20023;-75
2022/03/29 10:34:40;;;;;;;32.05;22.77;;;;;;;10.53;65.06;99032.66;4935104;29;20031;-76
2022/03/29 10:37:17;;;;;;;32.72;21.90;;;;;;;10.59;64.53;99027.13;4935045;29;20051;-76
2022/03/29 10:39:42;;;;;;;29.80;22.38;;;;;;;10.78;64.05;99032.13;4935211;29;20079;-77
2022/03/29 10:42:23;;;;;;;28.92;20.98;;;;;;;10.80;64.00;99027.69;4934649;29;20031;-76
2022/03/29 10:44:59;;;;;;;28.77;22.10;;;;;;;10.73;63.99;99023.72;4934986;29;20031;-76
2022/03/29 10:47:26;;;;;;;30.67;21.90;;;;;;;10.62;64.24;99020.88;4935176;29;20028;-77
2022/03/29 10:49:52;;;;;;;31.67;22.50;;;;;;;10.55;64.61;99007.41;4934490;29;20035;-76
2022/03/29 10:52:20;;;;;;;28.73;22.65;;;;;;;10.58;65.27;99033.28;4935002;29;20551;-76
2022/03/29 10:54:46;;;;;;;35.05;23.27;;;;;;;10.67;65.36;99008.47;4935178;29;20054;-75
2022/03/29 10:57:20;;;;;;;31.23;23.10;;;;;;;10.84;64.50;99023.13;4934653;29;20539;-75
2022/03/29 11:00:12;;;;;;;35.10;25.25;;;;;;;10.96;64.28;99028.47;4935048;29;20051;-75
2022/03/29 11:02:58;;;;;;;35.08;24.45;;;;;;;11.20;63.28;99018.34;4932328;29;20040;-75
2022/03/29 11:05:24;;;;;;;36.47;27.00;;;;;;;11.43;61.51;99008.34;4932749;29;20424;-75
2022/03/29 11:07:52;;;;;;;46.30;36.30;;;;;;;11.43;62.05;99003.97;4928432;29;20040;-77
2022/03/29 11:10:23;;;;;;;32.25;23.83;;;;;;;11.28;60.98;99002.25;4913452;29;20599;-76
2022/03/29 11:12:51;;;;;;;35.03;23.48;;;;;;;11.16;61.43;99003.81;4913328;29;20603;-79
2022/03/29 11:15:27;;;;;;;32.50;24.13;;;;;;;11.04;60.94;99001.97;4906902;29;20086;-75
2022/03/29 11:17:54;;;;;;;39.03;26.63;;;;;;;10.89;61.62;98993.28;4896271;29;20032;-76
2022/03/29 11:20:31;;;;;;;37.95;26.00;;;;;;;10.92;61.60;98995.72;4897140;29;20405;-75
2022/03/29 11:23:04;;;;;;;36.47;25.17;;;;;;;10.78;62.34;98997.41;4906254;29;20033;-76
2022/03/29 11:25:37;;;;;;;39.42;27.10;;;;;;;10.72;62.19;98986.44;4894328;29;20076;-76
2022/03/29 11:28:11;;;;;;;41.70;30.38;;;;;;;10.68;62.23;98986.69;4893899;29;20037;-76
2022/03/29 11:30:37;;;;;;;44.80;32.30;;;;;;;10.59;62.33;98997.66;4894193;29;20508;-75